createdAt,value
2022-09-30T00:00:11.229Z,19.94
2022-09-30T00:01:11.220Z,19.94
2022-09-30T00:02:11.239Z,19.95
2022-09-30T00:03:11.268Z,19.94
2022-09-30T00:04:11.184Z,19.94
2022-09-30T00:05:11.179Z,19.95
2022-09-30T00:06:11.200Z,19.95
2022-09-30T00:07:11.152Z,19.94
2022-09-30T00:08:11.141Z,19.94
2022-09-30T00:09:11.176Z,19.94
2022-09-30T00:10:11.118Z,19.94
2022-09-30T00:11:11.110Z,19.94
2022-09-30T00:12:11.116Z,19.95
2022-09-30T00:13:11.085Z,19.94
2022-09-30T00:14:11.076Z,19.94
2022-09-30T00:15:11.087Z,19.95
2022-09-30T00:16:11.077Z,19.92
2022-09-30T00:17:11.064Z,19.94
2022-09-30T00:18:11.033Z,19.94
2022-09-30T00:19:11.036Z,19.94
2022-09-30T00:20:11.008Z,19.94
2022-09-30T00:21:10.997Z,19.94
2022-09-30T00:22:10.992Z,19.94
2022-09-30T00:23:10.973Z,19.94
2022-09-30T00:24:10.989Z,19.94
2022-09-30T00:25:10.952Z,19.94
2022-09-30T00:26:10.941Z,19.94
2022-09-30T00:27:10.930Z,19.94
2022-09-30T00:28:10.921Z,19.94
2022-09-30T00:29:10.926Z,19.94
2022-09-30T00:30:10.897Z,19.92
2022-09-30T00:31:10.945Z,19.92
2022-09-30T00:32:10.875Z,19.94
2022-09-30T00:33:10.863Z,19.94
2022-09-30T00:34:10.876Z,19.92
2022-09-30T00:35:10.840Z,19.94
2022-09-30T00:36:10.835Z,19.94
2022-09-30T00:37:10.824Z,19.94
2022-09-30T00:38:10.810Z,19.94
2022-09-30T00:39:10.817Z,19.94
2022-09-30T00:40:10.786Z,19.94
2022-09-30T00:41:10.774Z,19.92
2022-09-30T00:42:10.764Z,19.94
2022-09-30T00:43:10.752Z,19.92
2022-09-30T00:44:10.741Z,19.92
2022-09-30T00:45:10.751Z,19.94
2022-09-30T00:46:10.727Z,19.92
2022-09-30T00:47:10.771Z,19.94
2022-09-30T00:48:10.701Z,19.92
2022-09-30T00:49:10.687Z,19.92
2022-09-30T00:50:10.697Z,19.92
2022-09-30T00:51:10.667Z,19.92
2022-09-30T00:52:10.685Z,19.94
2022-09-30T00:53:10.645Z,19.92
2022-09-30T00:54:10.632Z,19.92
2022-09-30T00:55:10.619Z,19.92
2022-09-30T00:56:10.611Z,19.92
2022-09-30T00:57:10.598Z,19.92
2022-09-30T00:58:10.608Z,19.92
2022-09-30T00:59:10.575Z,19.92
2022-09-30T01:00:10.567Z,19.94
2022-09-30T01:01:10.631Z,19.92
2022-09-30T01:02:10.689Z,19.92
2022-09-30T01:03:10.554Z,19.91
2022-09-30T01:04:10.524Z,19.92
2022-09-30T01:05:10.509Z,19.91
2022-09-30T01:06:10.533Z,19.91
2022-09-30T01:07:10.486Z,19.89
2022-09-30T01:08:10.477Z,19.92
2022-09-30T01:09:10.543Z,19.91
2022-09-30T01:10:10.455Z,19.92
2022-09-30T01:11:10.442Z,19.91
2022-09-30T01:12:10.450Z,19.92
2022-09-30T01:13:10.421Z,19.92
2022-09-30T01:14:10.428Z,19.91
2022-09-30T01:15:10.399Z,19.91
2022-09-30T01:16:10.412Z,19.91
2022-09-30T01:17:10.375Z,19.91
2022-09-30T01:18:10.383Z,19.91
2022-09-30T01:19:10.394Z,19.89
2022-09-30T01:20:10.347Z,19.89
2022-09-30T01:21:10.332Z,19.92
2022-09-30T01:22:10.322Z,19.91
2022-09-30T01:23:10.309Z,19.91
2022-09-30T01:24:10.319Z,19.92
2022-09-30T01:25:10.304Z,19.89
2022-09-30T01:26:10.275Z,19.91
2022-09-30T01:27:10.264Z,19.91
2022-09-30T01:28:10.255Z,19.92
2022-09-30T01:29:10.241Z,19.91
2022-09-30T01:30:10.253Z,19.89
2022-09-30T01:31:10.257Z,19.91
2022-09-30T01:32:10.212Z,19.91
2022-09-30T01:33:10.197Z,19.91
2022-09-30T01:34:10.187Z,19.91
2022-09-30T01:35:10.217Z,19.91
2022-09-30T01:36:10.183Z,19.89
2022-09-30T01:37:10.155Z,19.91
2022-09-30T01:38:10.141Z,19.91
2022-09-30T01:39:10.132Z,19.91
2022-09-30T01:40:10.121Z,19.91
2022-09-30T01:41:10.130Z,19.91
2022-09-30T01:42:10.115Z,19.91
2022-09-30T01:43:10.086Z,19.91
2022-09-30T01:44:10.074Z,19.91
2022-09-30T01:45:10.066Z,19.91
2022-09-30T01:46:10.074Z,19.89
2022-09-30T01:47:10.042Z,19.89
2022-09-30T01:48:10.050Z,19.91
2022-09-30T01:49:10.024Z,19.89
2022-09-30T01:50:10.008Z,19.89
2022-09-30T01:51:10.021Z,19.89
2022-09-30T01:52:09.986Z,19.89
2022-09-30T01:53:09.996Z,19.89
2022-09-30T01:54:09.964Z,19.89
2022-09-30T01:55:09.955Z,19.91
2022-09-30T01:56:09.941Z,19.89
2022-09-30T01:57:09.932Z,19.89
2022-09-30T01:58:09.938Z,19.89
2022-09-30T01:59:09.933Z,19.89
2022-09-30T02:00:09.896Z,19.88
2022-09-30T02:01:09.954Z,19.89
2022-09-30T02:02:09.905Z,19.89
2022-09-30T02:03:09.868Z,19.89
2022-09-30T02:04:09.884Z,19.89
2022-09-30T02:05:09.843Z,19.89
2022-09-30T02:06:09.830Z,19.91
2022-09-30T02:07:09.844Z,19.89
2022-09-30T02:08:09.807Z,19.88
2022-09-30T02:09:09.860Z,19.89
2022-09-30T02:10:09.804Z,19.88
2022-09-30T02:11:09.774Z,19.88
2022-09-30T02:12:09.762Z,19.89
2022-09-30T02:13:09.776Z,19.89
2022-09-30T02:14:09.740Z,19.89
2022-09-30T02:15:09.733Z,19.89
2022-09-30T02:16:09.744Z,19.88
2022-09-30T02:17:09.710Z,19.88
2022-09-30T02:18:09.716Z,19.89
2022-09-30T02:19:09.705Z,19.89
2022-09-30T02:20:09.675Z,19.89
2022-09-30T02:21:09.665Z,19.89
2022-09-30T02:22:09.652Z,19.89
2022-09-30T02:23:09.789Z,19.88
2022-09-30T02:24:09.650Z,19.89
2022-09-30T02:25:09.637Z,19.89
2022-09-30T02:26:09.612Z,19.88
2022-09-30T02:27:09.600Z,19.89
2022-09-30T02:28:09.584Z,19.88
2022-09-30T02:29:09.575Z,19.88
2022-09-30T02:30:09.587Z,19.88
2022-09-30T02:31:09.620Z,19.88
2022-09-30T02:32:09.541Z,19.88
2022-09-30T02:33:09.532Z,19.88
2022-09-30T02:34:09.519Z,19.88
2022-09-30T02:35:09.514Z,19.88
2022-09-30T02:36:09.516Z,19.89
2022-09-30T02:37:09.485Z,19.88
2022-09-30T02:38:09.475Z,19.88
2022-09-30T02:39:09.492Z,19.88
2022-09-30T02:40:09.460Z,19.89
2022-09-30T02:41:09.481Z,19.89
2022-09-30T02:42:09.435Z,19.89
2022-09-30T02:43:09.423Z,19.88
2022-09-30T02:44:09.417Z,19.88
2022-09-30T02:45:09.401Z,19.88
2022-09-30T02:46:09.483Z,19.86
2022-09-30T02:47:09.397Z,19.88
2022-09-30T02:48:09.364Z,19.89
2022-09-30T02:49:09.374Z,19.88
2022-09-30T02:50:09.342Z,19.88
2022-09-30T02:51:09.331Z,19.88
2022-09-30T02:52:09.321Z,19.86
2022-09-30T02:53:09.311Z,19.86
2022-09-30T02:54:09.317Z,19.88
2022-09-30T02:55:09.309Z,19.86
2022-09-30T02:56:09.276Z,19.88
2022-09-30T02:57:09.266Z,19.86
2022-09-30T02:58:09.253Z,19.88
2022-09-30T02:59:09.266Z,19.88
2022-09-30T03:00:12.898Z,19.88
2022-09-30T03:01:09.333Z,19.86
2022-09-30T03:02:09.261Z,19.88
2022-09-30T03:03:09.198Z,19.88
2022-09-30T03:04:09.208Z,19.86
2022-09-30T03:05:09.176Z,19.86
2022-09-30T03:06:09.165Z,19.86
2022-09-30T03:07:09.158Z,19.88
2022-09-30T03:08:09.142Z,19.86
2022-09-30T03:09:09.226Z,19.86
2022-09-30T03:10:09.120Z,19.88
2022-09-30T03:11:09.157Z,19.86
2022-09-30T03:12:09.097Z,19.86
2022-09-30T03:13:09.090Z,19.85
2022-09-30T03:14:09.077Z,19.86
2022-09-30T03:15:09.066Z,19.88
2022-09-30T03:16:13.694Z,19.86
2022-09-30T03:17:09.043Z,19.86
2022-09-30T03:18:09.031Z,19.88
2022-09-30T03:19:09.023Z,19.86
2022-09-30T03:20:09.009Z,19.86
2022-09-30T03:21:09.001Z,19.86
2022-09-30T03:22:09.007Z,19.85
2022-09-30T03:23:08.976Z,19.86
2022-09-30T03:24:08.964Z,19.86
2022-09-30T03:25:08.956Z,19.85
2022-09-30T03:26:08.943Z,19.86
2022-09-30T03:27:08.958Z,19.86
2022-09-30T03:28:08.939Z,19.85
2022-09-30T03:29:08.928Z,19.85
2022-09-30T03:30:08.899Z,19.86
2022-09-30T03:31:08.927Z,19.85
2022-09-30T03:32:08.878Z,19.86
2022-09-30T03:33:08.868Z,19.86
2022-09-30T03:34:08.874Z,19.86
2022-09-30T03:35:08.863Z,19.86
2022-09-30T03:36:08.832Z,19.86
2022-09-30T03:37:08.825Z,19.86
2022-09-30T03:38:08.811Z,19.86
2022-09-30T03:39:08.801Z,19.85
2022-09-30T03:40:08.807Z,19.86
2022-09-30T03:41:08.796Z,19.85
2022-09-30T03:42:08.765Z,19.85
2022-09-30T03:43:08.824Z,19.86
2022-09-30T03:44:08.743Z,19.86
2022-09-30T03:45:08.734Z,19.86
2022-09-30T03:46:08.753Z,19.85
2022-09-30T03:47:08.709Z,19.85
2022-09-30T03:48:08.699Z,19.85
2022-09-30T03:49:08.689Z,19.85
2022-09-30T03:50:08.676Z,19.86
2022-09-30T03:51:08.668Z,19.84
2022-09-30T03:52:08.675Z,19.85
2022-09-30T03:53:08.644Z,19.85
2022-09-30T03:54:08.632Z,19.85
2022-09-30T03:55:08.626Z,19.85
2022-09-30T03:56:08.609Z,19.85
2022-09-30T03:57:08.629Z,19.85
2022-09-30T03:58:08.588Z,19.85
2022-09-30T03:59:08.604Z,19.85
2022-09-30T04:00:08.565Z,19.85
2022-09-30T04:01:08.653Z,19.85
2022-09-30T04:02:08.571Z,19.86
2022-09-30T04:03:08.535Z,19.85
2022-09-30T04:04:08.522Z,19.85
2022-09-30T04:05:08.517Z,19.86
2022-09-30T04:06:08.525Z,19.85
2022-09-30T04:07:08.488Z,19.85
2022-09-30T04:08:08.479Z,19.85
2022-09-30T04:09:08.530Z,19.84
2022-09-30T04:10:08.456Z,19.86
2022-09-30T04:11:08.475Z,19.85
2022-09-30T04:12:08.433Z,19.84
2022-09-30T04:13:08.423Z,19.85
2022-09-30T04:14:08.412Z,19.85
2022-09-30T04:15:08.486Z,19.85
2022-09-30T04:16:08.465Z,19.85
2022-09-30T04:17:08.381Z,19.85
2022-09-30T04:18:08.366Z,19.85
2022-09-30T04:19:08.367Z,19.85
2022-09-30T04:20:08.344Z,19.86
2022-09-30T04:21:08.370Z,19.85
2022-09-30T04:22:08.322Z,19.85
2022-09-30T04:23:08.312Z,19.84
2022-09-30T04:24:08.299Z,19.85
2022-09-30T04:25:08.292Z,19.85
2022-09-30T04:26:08.306Z,19.85
2022-09-30T04:27:08.268Z,19.85
2022-09-30T04:28:08.255Z,19.84
2022-09-30T04:29:08.247Z,19.85
2022-09-30T04:30:08.233Z,19.85
2022-09-30T04:31:08.365Z,19.85
2022-09-30T04:32:08.215Z,19.85
2022-09-30T04:33:08.202Z,19.84
2022-09-30T04:34:08.190Z,19.84
2022-09-30T04:35:08.178Z,19.84
2022-09-30T04:36:08.194Z,19.84
2022-09-30T04:37:10.918Z,19.84
2022-09-30T04:38:08.143Z,19.84
2022-09-30T04:39:08.135Z,19.84
2022-09-30T04:40:08.123Z,19.84
2022-09-30T04:41:08.141Z,19.84
2022-09-30T04:42:08.100Z,19.82
2022-09-30T04:43:08.089Z,19.84
2022-09-30T04:44:08.078Z,19.84
2022-09-30T04:45:08.067Z,19.84
2022-09-30T04:46:08.144Z,19.84
2022-09-30T04:47:08.069Z,19.84
2022-09-30T04:48:08.034Z,19.84
2022-09-30T04:49:09.531Z,19.84
2022-09-30T04:50:08.012Z,19.84
2022-09-30T04:51:08.033Z,19.84
2022-09-30T04:52:07.990Z,19.84
2022-09-30T04:53:07.983Z,19.84
2022-09-30T04:54:07.971Z,19.84
2022-09-30T04:55:07.958Z,19.84
2022-09-30T04:56:07.979Z,19.84
2022-09-30T04:57:07.938Z,19.84
2022-09-30T04:58:07.925Z,19.85
2022-09-30T04:59:07.922Z,19.84
2022-09-30T05:00:07.902Z,19.84
2022-09-30T05:01:07.971Z,19.84
2022-09-30T05:02:08.002Z,19.82
2022-09-30T05:03:07.896Z,19.84
2022-09-30T05:04:07.858Z,19.84
2022-09-30T05:05:07.850Z,19.84
2022-09-30T05:06:07.840Z,19.84
2022-09-30T05:07:07.853Z,19.84
2022-09-30T05:08:07.813Z,19.82
2022-09-30T05:09:07.821Z,19.82
2022-09-30T05:10:07.791Z,19.82
2022-09-30T05:11:07.784Z,19.84
2022-09-30T05:12:07.798Z,19.82
2022-09-30T05:13:07.760Z,19.82
2022-09-30T05:14:07.747Z,19.82
2022-09-30T05:15:07.736Z,19.82
2022-09-30T05:16:07.835Z,19.82
2022-09-30T05:17:07.743Z,19.82
2022-09-30T05:18:07.702Z,19.84
2022-09-30T05:19:07.719Z,19.82
2022-09-30T05:20:07.681Z,19.82
2022-09-30T05:21:07.679Z,19.82
2022-09-30T05:22:07.687Z,19.84
2022-09-30T05:23:07.654Z,19.82
2022-09-30T05:24:07.635Z,19.82
2022-09-30T05:25:07.630Z,19.82
2022-09-30T05:26:11.907Z,19.82
2022-09-30T05:27:07.631Z,19.82
2022-09-30T05:28:07.591Z,19.81
2022-09-30T05:29:07.586Z,19.82
2022-09-30T05:30:07.575Z,19.84
2022-09-30T05:31:07.589Z,19.82
2022-09-30T05:32:07.575Z,19.82
2022-09-30T05:33:07.536Z,19.82
2022-09-30T05:34:07.526Z,19.82
2022-09-30T05:35:07.538Z,19.82
2022-09-30T05:36:07.502Z,19.81
2022-09-30T05:37:07.522Z,19.82
2022-09-30T05:38:07.483Z,19.81
2022-09-30T05:39:07.471Z,19.82
2022-09-30T05:40:07.462Z,19.82
2022-09-30T05:41:07.447Z,19.82
2022-09-30T05:42:10.877Z,19.82
2022-09-30T05:43:08.424Z,19.81
2022-09-30T05:44:07.414Z,19.82
2022-09-30T05:45:07.408Z,19.82
2022-09-30T05:46:07.392Z,19.81
2022-09-30T05:47:07.509Z,19.81
2022-09-30T05:48:07.372Z,19.81
2022-09-30T05:49:07.361Z,19.81
2022-09-30T05:50:07.347Z,19.82
2022-09-30T05:51:07.362Z,19.81
2022-09-30T05:52:07.354Z,19.82
2022-09-30T05:53:07.314Z,19.81
2022-09-30T05:54:07.304Z,19.81
2022-09-30T05:55:07.294Z,19.81
2022-09-30T05:56:07.283Z,19.82
2022-09-30T05:57:07.270Z,19.82
2022-09-30T05:58:07.290Z,19.81
2022-09-30T05:59:07.250Z,19.79
2022-09-30T06:00:07.245Z,19.84
2022-09-30T06:01:12.831Z,19.82
2022-09-30T06:02:08.368Z,19.81
2022-09-30T06:03:07.274Z,19.82
2022-09-30T06:04:07.198Z,19.82
2022-09-30T06:05:07.183Z,19.82
2022-09-30T06:06:07.175Z,19.81
2022-09-30T06:07:10.520Z,19.81
2022-09-30T06:08:07.182Z,19.81
2022-09-30T06:09:07.183Z,19.82
2022-09-30T06:10:07.133Z,19.82
2022-09-30T06:11:07.120Z,19.81
2022-09-30T06:12:07.108Z,19.81
2022-09-30T06:13:07.131Z,19.81
2022-09-30T06:14:07.089Z,19.82
2022-09-30T06:15:07.078Z,19.81
2022-09-30T06:16:07.094Z,19.81
2022-09-30T06:17:07.058Z,19.81
2022-09-30T06:18:07.077Z,19.81
2022-09-30T06:19:07.035Z,19.81
2022-09-30T06:20:07.023Z,19.81
2022-09-30T06:21:07.017Z,19.81
2022-09-30T06:22:07.002Z,19.81
2022-09-30T06:23:07.050Z,19.81
2022-09-30T06:24:06.981Z,19.81
2022-09-30T06:25:06.969Z,19.81
2022-09-30T06:26:06.960Z,19.81
2022-09-30T06:27:06.949Z,19.82
2022-09-30T06:28:06.964Z,19.81
2022-09-30T06:29:06.928Z,19.82
2022-09-30T06:30:06.915Z,19.81
2022-09-30T06:31:06.906Z,19.81
2022-09-30T06:32:06.975Z,19.79
2022-09-30T06:33:06.918Z,19.81
2022-09-30T06:34:06.873Z,19.79
2022-09-30T06:35:06.861Z,19.79
2022-09-30T06:36:06.878Z,19.81
2022-09-30T06:37:06.836Z,19.79
2022-09-30T06:38:06.854Z,19.79
2022-09-30T06:39:10.276Z,19.77
2022-09-30T06:40:07.802Z,19.79
2022-09-30T06:41:06.793Z,19.77
2022-09-30T06:42:06.781Z,19.77
2022-09-30T06:43:06.802Z,19.79
2022-09-30T06:44:06.788Z,19.77
2022-09-30T06:45:06.748Z,19.77
2022-09-30T06:46:15.285Z,19.77
2022-09-30T06:47:18.240Z,19.77
2022-09-30T06:48:07.783Z,19.77
2022-09-30T06:49:13.513Z,19.77
2022-09-30T06:50:11.437Z,19.76
2022-09-30T06:51:07.684Z,19.76
2022-09-30T06:52:06.673Z,19.77
2022-09-30T06:53:06.665Z,19.76
2022-09-30T06:54:06.680Z,19.77
2022-09-30T06:55:06.665Z,19.77
2022-09-30T06:56:06.634Z,19.77
2022-09-30T06:57:06.623Z,19.77
2022-09-30T06:58:06.609Z,19.77
2022-09-30T06:59:06.629Z,19.77
2022-09-30T07:00:06.587Z,19.81
2022-09-30T07:01:06.689Z,19.79
2022-09-30T07:02:06.653Z,19.79
2022-09-30T07:03:06.556Z,19.81
2022-09-30T07:04:06.574Z,19.79
2022-09-30T07:05:06.532Z,19.81
2022-09-30T07:06:06.526Z,19.82
2022-09-30T07:07:06.513Z,19.81
2022-09-30T07:08:06.502Z,19.82
2022-09-30T07:09:06.593Z,19.82
2022-09-30T07:10:06.480Z,19.82
2022-09-30T07:11:06.489Z,19.82
2022-09-30T07:12:06.457Z,19.82
2022-09-30T07:13:06.447Z,19.82
2022-09-30T07:14:06.483Z,19.81
2022-09-30T07:15:09.206Z,19.81
2022-09-30T07:16:07.460Z,19.81
2022-09-30T07:17:06.403Z,19.82
2022-09-30T07:18:06.388Z,19.82
2022-09-30T07:19:06.378Z,19.81
2022-09-30T07:20:06.396Z,19.82
2022-09-30T07:21:06.358Z,19.81
2022-09-30T07:22:06.344Z,19.82
2022-09-30T07:23:06.334Z,19.81
2022-09-30T07:24:06.322Z,19.84
2022-09-30T07:25:06.342Z,19.82
2022-09-30T07:26:06.303Z,19.82
2022-09-30T07:27:06.313Z,19.82
2022-09-30T07:28:06.278Z,19.84
2022-09-30T07:29:06.270Z,19.84
2022-09-30T07:30:13.297Z,19.81
2022-09-30T07:31:31.551Z,19.82
2022-09-30T07:32:07.283Z,19.82
2022-09-30T07:33:06.227Z,19.82
2022-09-30T07:34:06.213Z,19.82
2022-09-30T07:35:06.234Z,19.82
2022-09-30T07:36:06.189Z,19.82
2022-09-30T07:37:06.180Z,19.84
2022-09-30T07:38:06.167Z,19.82
2022-09-30T07:39:06.834Z,19.82
2022-09-30T07:40:06.177Z,19.84
2022-09-30T07:41:06.143Z,19.82
2022-09-30T07:42:06.149Z,19.82
2022-09-30T07:43:06.157Z,19.82
2022-09-30T07:44:06.264Z,19.81
2022-09-30T07:45:06.120Z,19.82
2022-09-30T07:46:06.155Z,19.82
2022-09-30T07:47:06.068Z,19.81
2022-09-30T07:48:06.059Z,19.82
2022-09-30T07:49:06.050Z,19.82
2022-09-30T07:50:06.065Z,19.82
2022-09-30T07:51:06.026Z,19.81
2022-09-30T07:52:06.013Z,19.82
2022-09-30T07:53:06.003Z,19.82
2022-09-30T07:54:05.992Z,19.82
2022-09-30T07:55:06.012Z,19.82
2022-09-30T07:56:05.969Z,19.82
2022-09-30T07:57:10.277Z,19.84
2022-09-30T07:58:06.945Z,19.82
2022-09-30T07:59:05.960Z,19.82
2022-09-30T08:00:29.871Z,19.82
2022-09-30T08:01:07.006Z,19.85
2022-09-30T08:02:05.943Z,19.85
2022-09-30T08:03:05.893Z,19.85
2022-09-30T08:04:05.880Z,19.84
2022-09-30T08:05:05.902Z,19.85
2022-09-30T08:06:05.891Z,19.84
2022-09-30T08:07:05.852Z,19.85
2022-09-30T08:08:05.834Z,19.85
2022-09-30T08:09:05.911Z,19.85
2022-09-30T08:10:05.813Z,19.85
2022-09-30T08:11:05.834Z,19.85
2022-09-30T08:12:05.797Z,19.85
2022-09-30T08:13:06.401Z,19.85
2022-09-30T08:14:05.770Z,19.86
2022-09-30T08:15:05.787Z,19.85
2022-09-30T08:16:05.815Z,19.85
2022-09-30T08:17:05.771Z,19.85
2022-09-30T08:18:05.729Z,19.86
2022-09-30T08:19:05.716Z,19.86
2022-09-30T08:20:09.565Z,19.88
2022-09-30T08:21:06.694Z,19.86
2022-09-30T08:22:05.712Z,19.85
2022-09-30T08:23:05.673Z,19.86
2022-09-30T08:24:05.659Z,19.85
2022-09-30T08:25:05.656Z,19.86
2022-09-30T08:26:05.638Z,19.85
2022-09-30T08:27:05.698Z,19.85
2022-09-30T08:28:05.616Z,19.85
2022-09-30T08:29:05.606Z,19.86
2022-09-30T08:30:05.602Z,19.84
2022-09-30T08:31:05.606Z,19.85
2022-09-30T08:32:05.664Z,19.85
2022-09-30T08:33:05.594Z,19.85
2022-09-30T08:34:05.554Z,19.84
2022-09-30T08:35:05.543Z,19.84
2022-09-30T08:36:05.530Z,19.82
2022-09-30T08:37:09.237Z,19.84
2022-09-30T08:38:05.537Z,19.82
2022-09-30T08:39:05.498Z,19.82
2022-09-30T08:40:05.486Z,19.82
2022-09-30T08:41:05.477Z,19.82
2022-09-30T08:42:19.209Z,19.85
2022-09-30T08:43:06.483Z,19.84
2022-09-30T08:44:05.445Z,19.84
2022-09-30T08:45:05.435Z,19.85
2022-09-30T08:46:05.526Z,19.86
2022-09-30T08:47:05.432Z,19.86
2022-09-30T08:48:05.512Z,19.85
2022-09-30T08:49:05.389Z,19.86
2022-09-30T08:50:05.378Z,19.86
2022-09-30T08:51:05.371Z,19.86
2022-09-30T08:52:05.356Z,19.88
2022-09-30T08:53:05.378Z,19.86
2022-09-30T08:54:05.365Z,19.85
2022-09-30T08:55:05.328Z,19.85
2022-09-30T08:56:05.312Z,19.85
2022-09-30T08:57:05.303Z,19.86
2022-09-30T08:58:05.292Z,19.85
2022-09-30T08:59:05.315Z,19.86
2022-09-30T09:00:05.269Z,19.85
2022-09-30T09:01:05.357Z,19.85
2022-09-30T09:02:05.348Z,19.85
2022-09-30T09:03:05.262Z,19.86
2022-09-30T09:04:05.256Z,19.85
2022-09-30T09:05:05.223Z,19.85
2022-09-30T09:06:05.205Z,19.86
2022-09-30T09:07:05.198Z,19.85
2022-09-30T09:08:05.186Z,19.85
2022-09-30T09:09:05.222Z,19.85
2022-09-30T09:10:05.166Z,19.85
2022-09-30T09:11:05.155Z,19.85
2022-09-30T09:12:05.141Z,19.85
2022-09-30T09:13:05.131Z,19.85
2022-09-30T09:14:05.121Z,19.85
2022-09-30T09:15:05.168Z,19.82
2022-09-30T09:16:05.099Z,19.84
2022-09-30T09:17:05.180Z,19.85
2022-09-30T09:18:22.583Z,19.84
2022-09-30T09:19:06.099Z,19.85
2022-09-30T09:20:05.085Z,19.85
2022-09-30T09:21:05.043Z,19.84
2022-09-30T09:22:05.031Z,19.84
2022-09-30T09:23:05.020Z,19.84
2022-09-30T09:24:05.009Z,19.84
2022-09-30T09:25:05.061Z,19.85
2022-09-30T09:26:04.987Z,19.85
2022-09-30T09:27:04.978Z,19.84
2022-09-30T09:28:05.025Z,19.84
2022-09-30T09:29:04.955Z,19.82
2022-09-30T09:30:04.945Z,19.84
2022-09-30T09:31:04.978Z,19.84
2022-09-30T09:32:04.995Z,19.84
2022-09-30T09:33:04.908Z,19.84
2022-09-30T09:34:04.896Z,19.84
2022-09-30T09:35:04.916Z,19.84
2022-09-30T09:36:04.876Z,19.81
2022-09-30T09:37:04.894Z,19.84
2022-09-30T09:38:04.881Z,19.84
2022-09-30T09:39:04.842Z,19.85
2022-09-30T09:40:04.877Z,19.84
2022-09-30T09:41:04.833Z,19.84
2022-09-30T09:42:04.810Z,19.84
2022-09-30T09:43:04.848Z,19.85
2022-09-30T09:44:04.786Z,19.84
2022-09-30T09:45:04.778Z,19.84
2022-09-30T09:46:04.850Z,19.84
2022-09-30T09:47:04.757Z,19.84
2022-09-30T09:48:04.772Z,19.84
2022-09-30T09:49:04.765Z,19.84
2022-09-30T09:50:04.721Z,19.82
2022-09-30T09:51:04.734Z,19.82
2022-09-30T09:52:04.699Z,19.84
2022-09-30T09:53:04.688Z,19.82
2022-09-30T09:54:04.706Z,19.84
2022-09-30T09:55:04.677Z,19.82
2022-09-30T09:56:04.655Z,19.82
2022-09-30T09:57:04.647Z,19.84
2022-09-30T09:58:04.639Z,19.84
2022-09-30T09:59:04.658Z,19.84
2022-09-30T10:00:04.720Z,19.84
2022-09-30T10:01:07.664Z,19.85
2022-09-30T10:02:05.627Z,19.84
2022-09-30T10:03:04.582Z,19.84
2022-09-30T10:04:04.599Z,19.82
2022-09-30T10:05:04.588Z,19.82
2022-09-30T10:06:04.553Z,19.84
2022-09-30T10:07:04.564Z,19.84
2022-09-30T10:08:04.526Z,19.85
2022-09-30T10:09:04.516Z,19.85
2022-09-30T10:10:04.531Z,19.84
2022-09-30T10:11:04.492Z,19.82
2022-09-30T10:12:04.486Z,19.84
2022-09-30T10:13:04.470Z,19.85
2022-09-30T10:14:04.459Z,19.84
2022-09-30T10:15:04.476Z,19.85
2022-09-30T10:16:04.475Z,19.85
2022-09-30T10:17:04.425Z,19.84
2022-09-30T10:18:04.427Z,19.84
2022-09-30T10:19:09.304Z,19.85
2022-09-30T10:20:05.427Z,19.85
2022-09-30T10:21:04.383Z,19.85
2022-09-30T10:22:04.394Z,19.85
2022-09-30T10:23:04.398Z,19.86
2022-09-30T10:24:04.349Z,19.85
2022-09-30T10:25:04.368Z,19.86
2022-09-30T10:26:04.357Z,19.85
2022-09-30T10:27:04.316Z,19.85
2022-09-30T10:28:04.353Z,19.86
2022-09-30T10:29:04.296Z,19.85
2022-09-30T10:30:04.288Z,19.85
2022-09-30T10:31:04.301Z,19.85
2022-09-30T10:32:04.354Z,19.86
2022-09-30T10:33:04.252Z,19.85
2022-09-30T10:34:04.268Z,19.86
2022-09-30T10:35:04.227Z,19.86
2022-09-30T10:36:04.219Z,19.86
2022-09-30T10:37:04.235Z,19.86
2022-09-30T10:38:04.195Z,19.86
2022-09-30T10:39:06.767Z,19.88
2022-09-30T10:40:04.175Z,19.86
2022-09-30T10:41:04.163Z,19.88
2022-09-30T10:42:04.183Z,19.86
2022-09-30T10:43:04.140Z,19.86
2022-09-30T10:44:04.132Z,19.86
2022-09-30T10:45:04.120Z,19.86
2022-09-30T10:46:27.781Z,19.86
2022-09-30T10:47:05.175Z,19.88
2022-09-30T10:48:04.086Z,19.86
2022-09-30T10:49:04.071Z,19.88
2022-09-30T10:50:04.064Z,19.88
2022-09-30T10:51:04.054Z,19.88
2022-09-30T10:52:04.067Z,19.88
2022-09-30T10:53:04.028Z,19.89
2022-09-30T10:54:04.019Z,19.88
2022-09-30T10:55:06.733Z,19.88
2022-09-30T10:56:04.993Z,19.88
2022-09-30T10:57:04.020Z,19.88
2022-09-30T10:58:03.978Z,19.88
2022-09-30T10:59:03.962Z,19.88
2022-09-30T11:00:03.962Z,19.86
2022-09-30T11:01:04.017Z,19.88
2022-09-30T11:02:05.902Z,19.86
2022-09-30T11:03:04.052Z,19.86
2022-09-30T11:04:03.909Z,19.86
2022-09-30T11:05:03.911Z,19.88
2022-09-30T11:06:03.887Z,19.86
2022-09-30T11:07:03.895Z,19.86
2022-09-30T11:08:03.901Z,19.86
2022-09-30T11:09:03.855Z,19.86
2022-09-30T11:10:03.845Z,19.85
2022-09-30T11:11:07.226Z,19.85
2022-09-30T11:12:04.822Z,19.86
2022-09-30T11:13:03.838Z,19.86
2022-09-30T11:14:03.800Z,19.86
2022-09-30T11:15:03.785Z,19.86
2022-09-30T11:16:03.843Z,19.88
2022-09-30T11:17:03.763Z,19.85
2022-09-30T11:18:03.786Z,19.88
2022-09-30T11:19:03.774Z,19.86
2022-09-30T11:20:03.734Z,19.86
2022-09-30T11:21:03.720Z,19.85
2022-09-30T11:22:03.711Z,19.88
2022-09-30T11:23:03.702Z,19.85
2022-09-30T11:24:03.729Z,19.88
2022-09-30T11:25:08.737Z,19.86
2022-09-30T11:26:04.669Z,19.86
2022-09-30T11:27:03.676Z,19.86
2022-09-30T11:28:03.708Z,19.86
2022-09-30T11:29:03.666Z,19.85
2022-09-30T11:30:03.628Z,19.86
2022-09-30T11:31:06.960Z,19.86
2022-09-30T11:32:03.682Z,19.86
2022-09-30T11:33:03.587Z,19.89
2022-09-30T11:34:03.609Z,19.88
2022-09-30T11:35:03.597Z,19.86
2022-09-30T11:36:03.560Z,19.86
2022-09-30T11:37:03.544Z,19.85
2022-09-30T11:38:03.539Z,19.88
2022-09-30T11:39:03.525Z,19.86
2022-09-30T11:40:03.542Z,19.88
2022-09-30T11:41:03.503Z,19.86
2022-09-30T11:42:03.493Z,19.88
2022-09-30T11:43:07.516Z,19.88
2022-09-30T11:44:03.471Z,19.88
2022-09-30T11:45:03.506Z,19.85
2022-09-30T11:46:03.492Z,19.88
2022-09-30T11:47:03.437Z,19.86
2022-09-30T11:48:03.452Z,19.88
2022-09-30T11:49:03.412Z,19.86
2022-09-30T11:50:03.402Z,19.88
2022-09-30T11:51:03.422Z,19.86
2022-09-30T11:52:03.382Z,19.88
2022-09-30T11:53:03.369Z,19.86
2022-09-30T11:54:03.355Z,19.88
2022-09-30T11:55:03.342Z,19.86
2022-09-30T11:56:03.334Z,19.86
2022-09-30T11:57:03.352Z,19.88
2022-09-30T11:58:22.273Z,19.88
2022-09-30T11:59:04.323Z,19.86
2022-09-30T12:00:03.291Z,19.86
2022-09-30T12:01:03.278Z,19.86
2022-09-30T12:02:03.345Z,19.88
2022-09-30T12:03:06.692Z,19.89
2022-09-30T12:04:04.248Z,19.91
2022-09-30T12:05:03.236Z,19.89
2022-09-30T12:06:03.227Z,19.91
2022-09-30T12:07:03.244Z,19.91
2022-09-30T12:08:03.230Z,19.94
2022-09-30T12:09:03.190Z,19.94
2022-09-30T12:10:03.183Z,19.92
2022-09-30T12:11:03.169Z,19.95
2022-09-30T12:12:03.158Z,19.96
2022-09-30T12:13:03.179Z,19.95
2022-09-30T12:14:03.137Z,19.96
2022-09-30T12:15:03.152Z,19.99
2022-09-30T12:16:03.171Z,19.99
2022-09-30T12:17:03.217Z,20.00
2022-09-30T12:18:03.121Z,20.00
2022-09-30T12:19:03.110Z,20.00
2022-09-30T12:20:03.075Z,20.02
2022-09-30T12:21:03.059Z,20.02
2022-09-30T12:22:03.047Z,20.02
2022-09-30T12:23:03.038Z,20.04
2022-09-30T12:24:03.054Z,20.03
2022-09-30T12:25:03.028Z,20.04
2022-09-30T12:26:03.004Z,20.06
2022-09-30T12:27:02.993Z,20.04
2022-09-30T12:28:03.074Z,20.06
2022-09-30T12:29:03.859Z,20.06
2022-09-30T12:30:02.957Z,20.06
2022-09-30T12:31:02.975Z,20.07
2022-09-30T12:32:03.006Z,20.09
2022-09-30T12:33:02.925Z,20.09
2022-09-30T12:34:02.967Z,20.06
2022-09-30T12:35:02.905Z,20.06
2022-09-30T12:36:02.890Z,20.09
2022-09-30T12:37:02.885Z,20.07
2022-09-30T12:38:02.871Z,20.07
2022-09-30T12:39:02.858Z,20.07
2022-09-30T12:40:02.877Z,20.09
2022-09-30T12:41:02.836Z,20.09
2022-09-30T12:42:02.825Z,20.09
2022-09-30T12:43:02.815Z,20.10
2022-09-30T12:44:02.805Z,20.09
2022-09-30T12:45:02.846Z,20.09
2022-09-30T12:46:02.894Z,20.10
2022-09-30T12:47:02.810Z,20.09
2022-09-30T12:48:02.760Z,20.09
2022-09-30T12:49:02.751Z,20.10
2022-09-30T12:50:02.744Z,20.09
2022-09-30T12:51:02.770Z,20.09
2022-09-30T12:52:02.747Z,20.07